Time;durP1;ratioP1;P1;durP2;ratioP2;P2;SDS_P1;SDS_P2;PMS_P1;PMS_P2;Temp;Humidity;BMP_temperature;BMP_pressure;BME280_temperature;BME280_humidity;BME280_pressure;Samples;Min_cycle;Max_cycle;Signal;HPM_P1;HPM_P2
2023/08/16 00:02:20;;;;;;;4.37;2.47;;;22.10;99.90;;;22.13;71.08;101435.47;4887709;28;99879;-46
2023/08/16 00:04:46;;;;;;;3.43;2.90;;;22.10;99.90;;;22.14;80.58;101427.31;4900163;28;97432;-43
2023/08/16 00:07:11;;;;;;;4.17;3.37;;;22.10;99.90;;;22.10;81.97;101436.53;4909583;28;97359;-44
2023/08/16 00:09:39;;;;;;;4.33;3.23;;;22.00;99.90;;;22.05;83.23;101433.34;4904443;28;97018;-44
2023/08/16 00:12:06;;;;;;;4.57;3.50;;;21.90;99.90;;;22.04;82.71;101426.22;4904606;28;97448;-45
2023/08/16 00:14:32;;;;;;;6.63;3.20;;;21.90;99.90;;;22.01;76.52;101426.44;4903097;28;97496;-44
2023/08/16 00:16:58;;;;;;;3.97;3.17;;;21.90;99.90;;;21.99;74.25;101423.00;4904696;28;97526;-44
2023/08/16 00:19:24;;;;;;;3.80;2.40;;;21.90;99.90;;;21.97;70.47;101430.28;4904455;28;98016;-43
2023/08/16 00:21:50;;;;;;;5.10;3.03;;;21.90;99.90;;;22.02;81.73;101438.03;4904039;28;98486;-43
2023/08/16 00:24:16;;;;;;;3.80;3.13;;;22.00;99.90;;;22.02;83.02;101428.16;4903290;28;97321;-44
2023/08/16 00:26:43;;;;;;;8.70;3.87;;;21.90;99.90;;;22.00;80.80;101426.56;4892820;28;96925;-45
2023/08/16 00:29:09;;;;;;;5.70;3.33;;;21.90;99.90;;;22.00;82.80;101424.72;4906712;28;97173;-43
2023/08/16 00:31:34;;;;;;;6.03;3.60;;;22.00;99.90;;;22.01;83.56;101420.22;4909638;28;96955;-46
2023/08/16 00:34:00;;;;;;;4.87;3.50;;;21.90;99.90;;;22.00;83.86;101413.97;4885575;28;106615;-45
2023/08/16 00:36:26;;;;;;;4.53;3.13;;;21.90;99.90;;;22.00;83.88;101413.97;4908092;28;97468;-45
2023/08/16 00:38:52;;;;;;;6.07;3.67;;;21.90;99.90;;;21.98;82.87;101410.50;4910162;28;101524;-46
2023/08/16 00:41:19;;;;;;;4.37;3.63;;;21.90;99.90;;;21.97;82.83;101414.16;4904636;28;97285;-45
2023/08/16 00:43:45;;;;;;;5.03;3.30;;;21.90;99.90;;;21.96;82.78;101412.47;4907717;28;97292;-43
2023/08/16 00:46:12;;;;;;;5.50;3.37;;;21.90;99.90;;;21.95;83.63;101414.28;4910647;28;97108;-46
2023/08/16 00:48:42;;;;;;;8.57;3.73;;;21.90;99.90;;;21.93;82.02;101407.31;4915572;28;98015;-44
2023/08/16 00:51:09;;;;;;;4.57;3.60;;;21.80;99.90;;;21.89;83.32;101412.06;4911503;28;98419;-44
2023/08/16 00:53:37;;;;;;;5.73;3.47;;;21.80;99.90;;;21.88;83.76;101410.34;4908308;28;97204;-46
2023/08/16 00:56:04;;;;;;;6.53;3.37;;;21.80;99.90;;;21.87;82.50;101410.44;4891173;28;97233;-47
2023/08/16 00:58:30;;;;;;;2.97;2.67;;;21.70;99.90;;;21.86;80.69;101406.91;4909089;28;97475;-46
2023/08/16 01:00:56;;;;;;;4.67;3.23;;;21.80;99.90;;;21.88;83.95;101409.47;4915310;28;97342;-44
2023/08/16 01:03:22;;;;;;;4.33;3.10;;;21.80;99.90;;;21.85;80.44;101405.19;4912709;28;111658;-44
2023/08/16 01:05:48;;;;;;;5.87;3.60;;;21.80;99.90;;;21.87;82.43;101397.03;4908485;28;115311;-45
2023/08/16 01:08:14;;;;;;;3.17;2.37;;;21.80;99.90;;;21.84;76.16;101405.28;4897765;28;102568;-44
2023/08/16 01:10:58;;;;;;;3.40;3.10;;;21.80;99.90;;;21.88;82.48;101409.47;4897826;28;106284;-46
2023/08/16 01:13:35;;;;;;;4.93;3.00;;;21.80;99.90;;;21.88;83.13;101409.47;4906430;28;97079;-44
2023/08/16 01:16:08;;;;;;;4.07;3.20;;;21.80;99.90;;;21.84;82.36;101408.81;4896621;28;97264;-43
2023/08/16 01:18:40;;;;;;;5.30;3.10;;;21.70;99.90;;;21.84;81.63;101413.31;4896608;28;97793;-43
2023/08/16 01:21:09;;;;;;;5.73;3.63;;;21.70;99.90;;;21.84;82.04;101407.97;4908345;28;97416;-44
2023/08/16 01:24:08;;;;;;;5.20;3.63;;;21.70;99.90;;;21.85;83.06;101398.97;4896971;28;97644;-46
2023/08/16 01:26:37;;;;;;;4.83;3.77;;;21.70;99.90;;;21.83;82.98;101406.25;4905267;28;97582;-44
2023/08/16 01:29:05;;;;;;;4.50;3.70;;;21.70;99.90;;;21.82;80.99;101399.16;4892346;28;98932;-43
2023/08/16 01:31:34;;;;;;;4.90;3.30;;;21.70;99.90;;;21.82;80.29;101399.16;4895006;28;98338;-46
2023/08/16 01:34:00;;;;;;;5.53;3.63;;;21.80;99.90;;;21.84;80.71;101413.31;4911035;28;97028;-43
2023/08/16 01:36:27;;;;;;;5.43;4.00;;;21.80;99.90;;;21.84;79.28;101411.50;4910954;28;97581;-47
2023/08/16 01:38:55;;;;;;;5.07;3.60;;;21.70;99.90;;;21.85;80.97;101415.06;4910529;28;97338;-43
2023/08/16 01:41:58;;;;;;;6.60;3.50;;;21.70;99.90;;;21.83;80.34;101408.94;4909937;28;98047;-47
2023/08/16 01:44:25;;;;;;;3.57;3.17;;;21.70;99.90;;;21.81;77.07;101419.78;4898887;28;96903;-44
2023/08/16 01:46:53;;;;;;;7.67;4.13;;;21.70;99.90;;;21.81;78.35;101419.78;4899162;28;96981;-43
2023/08/16 01:49:20;;;;;;;4.17;3.43;;;21.70;99.90;;;21.82;77.35;101426.00;4897420;28;106334;-43
2023/08/16 01:51:46;;;;;;;4.73;3.40;;;21.70;99.90;;;21.81;72.91;101418.91;4909071;28;97214;-46
2023/08/16 01:54:12;;;;;;;4.20;3.80;;;21.70;99.90;;;21.82;76.04;101420.63;4913488;28;97341;-44
2023/08/16 01:56:38;;;;;;;3.80;3.17;;;21.70;99.90;;;21.82;74.76;101410.75;4909786;28;97688;-44
2023/08/16 01:59:04;;;;;;;5.00;3.83;;;21.70;99.90;;;21.83;74.68;101411.59;4914439;28;97362;-43
2023/08/16 02:01:29;;;;;;;4.97;3.87;;;21.70;99.90;;;21.83;78.02;101411.59;4910890;28;97267;-44
2023/08/16 02:03:55;;;;;;;6.30;4.60;;;21.70;99.90;;;21.81;75.39;101413.56;4912176;28;107717;-43
2023/08/16 02:06:22;;;;;;;6.33;4.10;;;21.70;99.90;;;21.83;77.38;101422.34;4911475;28;97334;-43
2023/08/16 02:08:48;;;;;;;4.20;3.60;;;21.70;99.90;;;21.80;76.36;101407.31;4913472;28;98077;-47
2023/08/16 02:11:14;;;;;;;3.10;2.30;;;21.70;99.90;;;21.79;71.01;101415.50;4897956;28;105251;-43
2023/08/16 02:13:39;;;;;;;8.70;4.20;;;21.70;99.90;;;21.79;71.07;101415.50;4911190;28;97194;-45
2023/08/16 02:16:05;;;;;;;2.33;2.00;;;21.70;99.90;;;21.79;74.07;101415.50;4911688;28;97654;-43
2023/08/16 02:18:31;;;;;;;2.83;2.30;;;21.70;99.90;;;21.77;70.66;101414.75;4911835;28;102735;-44
2023/08/16 02:20:58;;;;;;;6.00;3.73;;;21.70;99.90;;;21.80;77.72;101422.56;4910180;28;97706;-44
2023/08/16 02:23:24;;;;;;;4.90;4.00;;;21.70;99.90;;;21.78;76.37;101421.81;4913104;28;96823;-43
2023/08/16 02:25:50;;;;;;;6.03;4.40;;;21.60;99.90;;;21.78;75.04;101420.00;4906862;28;97480;-45
2023/08/16 02:28:16;;;;;;;7.03;4.30;;;21.60;99.90;;;21.78;74.30;101424.50;4905266;28;98956;-43
2023/08/16 02:30:41;;;;;;;6.93;4.17;;;21.60;99.90;;;21.78;70.36;101424.50;4909022;28;97366;-43
2023/08/16 02:33:07;;;;;;;4.13;2.87;;;21.60;99.90;;;21.78;69.72;101414.63;4908757;28;101868;-44
2023/08/16 02:35:33;;;;;;;5.77;4.60;;;21.70;99.90;;;21.80;72.71;101415.38;4910965;28;97357;-46
2023/08/16 02:37:59;;;;;;;5.63;4.53;;;21.70;99.90;;;21.80;74.77;101417.22;4907650;28;97165;-46
2023/08/16 02:40:24;;;;;;;6.50;4.93;;;21.70;99.90;;;21.79;71.86;101418.19;4913684;28;98234;-44
2023/08/16 02:42:50;;;;;;;3.37;2.60;;;21.60;99.90;;;21.78;72.47;101413.78;4914922;28;102518;-44
2023/08/16 02:45:17;;;;;;;5.40;4.30;;;21.70;99.90;;;21.81;74.92;101421.59;4913019;28;96929;-47
2023/08/16 02:47:44;;;;;;;6.50;4.70;;;21.70;99.90;;;21.78;75.34;101417.31;4921280;28;97228;-46
2023/08/16 02:50:10;;;;;;;6.07;4.57;;;21.60;99.90;;;21.78;75.22;101424.50;4909277;28;99733;-47
2023/08/16 02:52:36;;;;;;;9.87;5.47;;;21.60;99.90;;;21.76;73.56;101426.44;4908069;28;105717;-47
2023/08/16 02:55:02;;;;;;;2.60;2.40;;;21.60;99.90;;;21.75;72.18;101422.06;4910398;28;115559;-43
2023/08/16 02:57:27;;;;;;;8.53;5.47;;;21.60;99.90;;;21.77;74.97;101428.16;4905695;28;97993;-44
2023/08/16 02:59:54;;;;;;;5.13;4.13;;;21.60;99.90;;;21.75;72.34;101424.75;4904558;28;109048;-43
2023/08/16 03:02:19;;;;;;;5.73;3.40;;;21.60;99.90;;;21.74;69.38;101417.66;4913445;28;97299;-44
2023/08/16 03:04:46;;;;;;;4.90;3.63;;;21.60;99.90;;;21.76;71.75;101418.41;4907350;28;97182;-44
2023/08/16 03:07:12;;;;;;;4.27;3.60;;;21.60;99.90;;;21.76;72.17;101421.94;4909806;28;100195;-43
2023/08/16 03:09:39;;;;;;;5.43;4.30;;;21.60;99.90;;;21.76;71.21;101424.63;4908462;28;97408;-43
2023/08/16 03:12:06;;;;;;;3.83;2.90;;;21.60;99.90;;;21.75;70.19;101440.84;4905042;28;100989;-44
2023/08/16 03:14:32;;;;;;;5.03;2.97;;;21.60;99.90;;;21.75;69.49;101438.16;4904558;28;96794;-45
2023/08/16 03:16:58;;;;;;;5.40;3.93;;;21.60;99.90;;;21.76;70.46;101437.19;4909122;28;98595;-45
2023/08/16 03:19:25;;;;;;;6.57;4.40;;;21.60;99.90;;;21.76;71.57;101437.19;4907251;28;104216;-48
2023/08/16 03:21:54;;;;;;;5.67;4.17;;;21.60;99.90;;;21.77;70.67;101444.28;4906422;28;107874;-45
2023/08/16 03:24:20;;;;;;;7.50;4.97;;;21.60;99.90;;;21.77;73.19;101444.28;4909421;28;97424;-46
2023/08/16 03:26:45;;;;;;;5.23;3.87;;;21.60;99.90;;;21.77;74.66;101449.66;4912612;28;98928;-43
2023/08/16 03:29:11;;;;;;;5.83;4.43;;;21.60;99.90;;;21.75;69.74;101451.59;4898652;28;115201;-43
2023/08/16 03:31:37;;;;;;;6.67;4.77;;;21.60;99.90;;;21.76;75.96;101447.94;4904573;28;96964;-43
2023/08/16 03:34:04;;;;;;;8.67;4.93;;;21.60;99.90;;;21.72;77.51;101457.19;4907129;28;98731;-45
2023/08/16 03:36:30;;;;;;;6.43;5.00;;;21.60;99.90;;;21.67;77.63;101461.03;4907282;28;98768;-43
2023/08/16 03:38:55;;;;;;;6.93;5.10;;;21.50;99.90;;;21.64;76.20;101463.94;4907310;28;121049;-44
2023/08/16 03:41:21;;;;;;;6.80;5.27;;;21.50;99.90;;;21.66;75.68;101467.34;4904659;28;97102;-46
2023/08/16 03:43:47;;;;;;;8.93;5.67;;;21.50;99.90;;;21.67;74.64;101455.66;4908585;28;103456;-44
2023/08/16 03:46:13;;;;;;;7.83;5.63;;;21.50;99.90;;;21.69;75.97;101456.41;4906741;28;97874;-46
2023/08/16 03:48:38;;;;;;;8.33;5.47;;;21.50;99.90;;;21.71;74.42;101463.53;4903370;28;97497;-43
2023/08/16 03:51:04;;;;;;;2.93;2.63;;;21.50;99.90;;;21.69;71.15;101464.44;4909855;28;97545;-44
2023/08/16 03:53:30;;;;;;;11.30;5.17;;;21.60;99.90;;;21.72;75.44;101462.56;4903310;28;97258;-47
2023/08/16 03:55:57;;;;;;;8.17;5.43;;;21.60;99.90;;;21.72;72.78;101462.56;4903008;28;105385;-44
2023/08/16 03:58:24;;;;;;;9.13;6.10;;;21.60;99.90;;;21.72;75.85;101462.56;4908660;28;97694;-44
2023/08/16 04:00:51;;;;;;;4.47;2.03;;;21.60;99.90;;;21.73;72.99;101465.13;4913717;28;97409;-43
2023/08/16 04:03:18;;;;;;;3.87;3.10;;;21.60;99.90;;;21.74;72.03;101465.97;4903547;28;97618;-47
2023/08/16 04:05:44;;;;;;;2.10;1.77;;;21.60;99.90;;;21.74;70.13;101463.31;4905422;28;98892;-45
2023/08/16 04:08:10;;;;;;;2.50;2.10;;;21.60;99.90;;;21.75;69.69;101456.97;4909520;28;100486;-45
2023/08/16 04:10:37;;;;;;;7.87;5.30;;;21.60;99.90;;;21.77;78.23;101476.50;4889692;28;96980;-45
2023/08/16 04:13:03;;;;;;;10.03;6.23;;;21.60;99.90;;;21.73;79.92;101469.63;4880881;28;97142;-45
2023/08/16 04:15:29;;;;;;;8.77;5.97;;;21.60;99.90;;;21.69;81.34;101477.03;4915361;28;97377;-45
2023/08/16 04:17:55;;;;;;;8.30;6.30;;;21.50;99.90;;;21.66;81.02;101480.78;4912338;28;116594;-46
2023/08/16 04:20:22;;;;;;;7.53;5.43;;;21.50;99.90;;;21.66;79.81;101480.78;4905351;28;97430;-45
2023/08/16 04:22:49;;;;;;;9.30;6.27;;;21.50;99.90;;;21.69;78.21;101475.19;4909592;28;97673;-48
2023/08/16 04:25:14;;;;;;;4.77;3.27;;;21.50;99.90;;;21.69;71.56;101463.59;4904209;28;98699;-43
2023/08/16 04:27:41;;;;;;;2.80;2.20;;;21.60;99.90;;;21.70;69.78;101470.72;4906942;28;101272;-45
2023/08/16 04:30:09;;;;;;;9.27;5.83;;;21.60;99.90;;;21.74;78.95;101466.84;4906978;28;97298;-48
2023/08/16 04:32:35;;;;;;;9.17;6.00;;;21.60;99.90;;;21.74;80.71;101465.97;4906777;28;99151;-43
2023/08/16 04:35:00;;;;;;;7.33;5.67;;;21.60;99.90;;;21.73;81.74;101464.28;4902323;28;97332;-44
2023/08/16 04:37:26;;;;;;;9.80;6.20;;;21.60;99.90;;;21.71;82.08;101472.44;4907907;28;97173;-44
2023/08/16 04:39:52;;;;;;;10.03;6.67;;;21.60;99.90;;;21.71;81.23;101471.56;4920704;28;97519;-45
2023/08/16 04:42:18;;;;;;;9.90;6.47;;;21.60;99.90;;;21.71;81.70;101476.94;4900706;28;111182;-43
2023/08/16 04:44:44;;;;;;;11.23;5.63;;;21.60;99.90;;;21.70;81.70;101476.09;4921241;28;99810;-43
2023/08/16 04:47:10;;;;;;;9.17;6.00;;;21.50;99.90;;;21.71;80.48;101482.31;4918666;28;112940;-46
2023/08/16 04:49:37;;;;;;;8.67;6.17;;;21.60;99.90;;;21.73;78.96;101485.75;4921528;28;104690;-43
2023/08/16 04:52:03;;;;;;;9.57;5.97;;;21.60;99.90;;;21.73;79.15;101491.97;4923178;28;96598;-43
2023/08/16 04:54:28;;;;;;;9.03;5.60;;;21.60;99.90;;;21.75;77.28;101491.88;4916610;28;99233;-43
2023/08/16 04:56:54;;;;;;;8.57;6.20;;;21.60;99.90;;;21.77;80.58;101487.25;4913290;28;97331;-43
2023/08/16 04:59:20;;;;;;;11.83;6.47;;;21.60;99.90;;;21.75;82.63;101490.03;4905434;28;96989;-45
2023/08/16 05:01:46;;;;;;;7.60;5.60;;;21.60;99.90;;;21.73;81.61;101485.75;4913278;28;97223;-46
2023/08/16 05:04:11;;;;;;;8.30;5.60;;;21.60;99.90;;;21.74;78.13;101488.31;4908386;28;101243;-45
2023/08/16 05:06:38;;;;;;;10.80;6.57;;;21.60;99.90;;;21.75;79.28;101486.50;4912394;28;97573;-45
2023/08/16 05:09:04;;;;;;;9.37;6.20;;;21.60;99.90;;;21.75;80.60;101484.66;4909063;28;96962;-43
2023/08/16 05:11:30;;;;;;;10.43;5.53;;;21.70;99.90;;;21.75;82.11;101486.50;4918874;28;96943;-44
2023/08/16 05:13:56;;;;;;;11.47;5.87;;;21.60;99.90;;;21.75;83.36;101487.34;4916701;28;105252;-43
2023/08/16 05:16:22;;;;;;;8.40;5.53;;;21.60;99.90;;;21.74;83.89;101487.47;4903752;28;102149;-43
2023/08/16 05:18:48;;;;;;;6.33;5.27;;;21.60;99.90;;;21.72;83.10;101484.03;4904702;28;97296;-45
2023/08/16 05:21:13;;;;;;;8.10;5.40;;;21.60;99.90;;;21.68;83.27;101486.91;4907901;28;97338;-43
2023/08/16 05:23:39;;;;;;;8.57;5.37;;;21.50;99.90;;;21.67;83.37;101482.50;4912364;28;107708;-47
2023/08/16 05:26:05;;;;;;;7.03;5.00;;;21.50;99.90;;;21.67;79.77;101487.88;4904705;28;97383;-47
2023/08/16 05:28:31;;;;;;;7.43;5.07;;;21.50;99.90;;;21.69;81.44;101491.31;4894549;28;97164;-47
2023/08/16 05:31:07;;;;;;;7.87;5.10;;;21.60;99.90;;;21.69;82.37;101491.31;4906380;28;99781;-44
2023/08/16 05:33:33;;;;;;;2.47;2.27;;;21.60;99.90;;;21.68;72.85;101497.63;4908454;28;97685;-43
2023/08/16 05:35:59;;;;;;;5.53;4.20;;;21.60;99.90;;;21.69;74.90;101485.94;4908067;28;109473;-44
2023/08/16 05:38:25;;;;;;;4.63;3.97;;;21.60;99.90;;;21.72;79.37;101494.78;4907721;28;101379;-43
2023/08/16 05:40:51;;;;;;;7.03;4.80;;;21.60;99.90;;;21.72;82.97;101489.41;4912250;28;101287;-44
2023/08/16 05:43:17;;;;;;;5.20;4.13;;;21.60;99.90;;;21.69;82.95;101496.66;4908132;28;97760;-46
2023/08/16 05:45:43;;;;;;;6.47;4.40;;;21.60;99.90;;;21.70;83.68;101500.25;4914746;28;118099;-46
2023/08/16 05:48:09;;;;;;;6.83;4.33;;;21.60;99.90;;;21.70;81.52;101497.56;4910601;28;102867;-43
2023/08/16 05:50:36;;;;;;;2.43;2.23;;;21.60;99.90;;;21.68;72.74;101489.59;4911491;28;97421;-45
2023/08/16 05:53:03;;;;;;;3.90;3.00;;;21.60;99.90;;;21.72;77.41;101492.09;4904192;28;98781;-44
2023/08/16 05:55:29;;;;;;;6.60;4.00;;;21.60;99.90;;;21.74;78.29;101487.47;4904544;28;97686;-46
2023/08/16 05:57:55;;;;;;;5.70;4.93;;;21.60;99.90;;;21.76;83.94;101502.50;4911104;28;97531;-46
2023/08/16 06:00:20;;;;;;;6.87;4.93;;;21.60;99.90;;;21.77;84.58;101508.72;4903884;28;108690;-45
2023/08/16 06:02:47;;;;;;;6.00;4.87;;;21.60;99.90;;;21.77;84.14;101506.03;4914728;28;97711;-43
2023/08/16 06:05:13;;;;;;;6.90;5.03;;;21.70;99.90;;;21.76;78.64;101507.00;4911253;28;101156;-43
2023/08/16 06:07:39;;;;;;;7.90;5.97;;;21.70;99.90;;;21.79;83.77;101501.41;4909857;28;97226;-47
2023/08/16 06:10:06;;;;;;;11.17;6.10;;;21.70;99.90;;;21.78;83.83;101502.38;4912963;28;96863;-43
2023/08/16 06:12:32;;;;;;;7.77;6.00;;;21.70;99.90;;;21.77;82.86;101503.34;4909831;28;99078;-47
2023/08/16 06:14:58;;;;;;;8.67;5.97;;;21.70;99.90;;;21.77;81.15;101508.72;4904576;28;97760;-45
2023/08/16 06:17:24;;;;;;;5.70;4.40;;;21.70;99.90;;;21.77;80.61;101503.34;4910312;28;113816;-45
2023/08/16 06:19:50;;;;;;;8.33;5.10;;;21.70;99.90;;;21.79;80.31;101496.03;4909261;28;97619;-43
2023/08/16 06:22:16;;;;;;;8.47;5.80;;;21.70;99.90;;;21.81;84.12;101504.84;4907893;28;97588;-44
2023/08/16 06:24:42;;;;;;;11.60;7.03;;;21.70;99.90;;;21.82;85.58;101514.63;4909159;28;101717;-46
2023/08/16 06:27:08;;;;;;;9.13;6.53;;;21.70;99.90;;;21.83;85.85;101521.72;4901915;28;97400;-44
2023/08/16 06:29:35;;;;;;;9.30;6.20;;;21.70;99.90;;;21.81;85.10;101520.97;4908523;28;97211;-43
2023/08/16 06:32:02;;;;;;;12.20;6.53;;;21.70;99.90;;;21.84;85.08;101523.44;4897563;28;97157;-46
2023/08/16 06:34:27;;;;;;;5.83;3.73;;;21.80;99.90;;;21.81;77.32;101515.59;4898057;28;98163;-44
2023/08/16 06:36:53;;;;;;;11.53;6.97;;;21.80;99.90;;;21.83;83.11;101519.03;4908820;28;96923;-48
2023/08/16 06:39:19;;;;;;;9.07;4.77;;;21.80;99.90;;;21.80;73.69;101525.47;4903314;28;97243;-43
2023/08/16 06:41:45;;;;;;;4.00;2.80;;;21.80;99.90;;;21.78;70.85;101524.72;4904973;28;104248;-44
2023/08/16 06:44:11;;;;;;;2.20;1.93;;;21.80;99.90;;;21.76;69.13;101523.97;4898157;28;98302;-46
2023/08/16 06:46:37;;;;;;;2.20;1.70;;;21.70;99.90;;;21.78;68.62;101531.94;4885503;28;97388;-46
2023/08/16 06:49:03;;;;;;;2.23;1.70;;;21.70;99.90;;;21.80;68.55;101533.53;4904785;28;97223;-45
2023/08/16 06:51:29;;;;;;;2.20;2.00;;;21.80;99.90;;;21.84;68.80;101536.84;4915234;28;98080;-46
2023/08/16 06:53:55;;;;;;;3.03;2.07;;;21.80;99.90;;;21.82;67.73;101536.09;4907266;28;114388;-44
2023/08/16 06:56:20;;;;;;;2.40;2.20;;;21.80;99.90;;;21.82;67.72;101538.78;4906549;28;97241;-44
2023/08/16 06:58:46;;;;;;;1.93;1.63;;;21.80;99.90;;;21.84;67.57;101532.34;4910348;28;96997;-43
2023/08/16 07:01:12;;;;;;;3.57;2.70;;;21.80;99.90;;;21.89;70.79;101529.38;4902069;28;127104;-46
2023/08/16 07:03:39;;;;;;;11.63;7.13;;;21.90;99.90;;;21.98;77.55;101540.31;4904079;28;118225;-44
2023/08/16 07:06:04;;;;;;;10.30;7.13;;;22.00;99.90;;;22.00;77.94;101537.53;4904276;28;97238;-46
2023/08/16 07:08:30;;;;;;;11.23;7.33;;;22.00;99.90;;;22.05;80.66;101540.78;4907999;28;101106;-48
2023/08/16 07:10:56;;;;;;;11.57;7.57;;;22.10;99.90;;;22.07;81.91;101544.22;4908567;28;107267;-43
2023/08/16 07:13:22;;;;;;;12.83;8.00;;;22.10;99.90;;;22.07;81.93;101546.91;4896131;28;105410;-45
2023/08/16 07:15:48;;;;;;;16.63;7.57;;;22.00;99.90;;;22.07;82.59;101546.91;4905998;28;97287;-44
2023/08/16 07:18:13;;;;;;;12.40;7.43;;;22.00;99.90;;;22.07;83.60;101554.97;4895741;28;96634;-45
2023/08/16 07:20:39;;;;;;;2.87;2.57;;;22.00;99.90;;;22.00;70.16;101542.91;4899208;28;97298;-44
2023/08/16 07:23:06;;;;;;;12.63;8.07;;;22.00;99.90;;;22.02;77.67;101553.56;4904619;28;97754;-45
2023/08/16 07:25:33;;;;;;;2.27;2.07;;;21.90;99.90;;;21.96;69.55;101554.81;4899899;28;98165;-44
2023/08/16 07:27:59;;;;;;;2.73;2.47;;;21.90;99.90;;;21.87;68.66;101556.34;4903864;28;97337;-43
2023/08/16 07:30:25;;;;;;;3.00;2.00;;;21.90;99.90;;;21.81;68.16;101550.50;4906483;28;97367;-47
2023/08/16 07:32:51;;;;;;;2.47;1.80;;;21.80;99.90;;;21.81;68.22;101553.19;4906058;28;97373;-44
2023/08/16 07:35:16;;;;;;;2.87;1.90;;;21.80;99.90;;;21.84;67.82;101558.34;4907000;28;96940;-43
2023/08/16 07:37:43;;;;;;;1.50;1.40;;;21.90;99.90;;;21.84;67.76;101555.66;4913694;28;97381;-47
2023/08/16 07:41:21;;;;;;;2.60;1.30;;;21.90;99.90;;;21.81;67.43;101556.72;4915480;28;97131;-46
2023/08/16 07:43:46;;;;;;;9.40;5.87;;;21.90;99.90;;;21.87;67.78;101552.78;4907375;28;100832;-55
2023/08/16 07:46:12;;;;;;;6.43;4.60;;;21.90;99.90;;;21.89;67.28;101550.84;4908455;28;120038;-44
2023/08/16 07:48:38;;;;;;;3.73;2.60;;;21.90;99.90;;;21.92;68.75;101551.50;4903989;28;103948;-44
2023/08/16 07:51:04;;;;;;;3.53;2.20;;;22.00;99.90;;;21.87;67.60;101555.47;4907995;28;98756;-45
2023/08/16 07:53:30;;;;;;;2.87;2.27;;;21.90;99.90;;;21.86;67.38;101553.75;4908053;28;97686;-48
2023/08/16 07:55:56;;;;;;;11.20;6.17;;;21.90;99.90;;;21.96;72.16;101553.00;4894003;28;97519;-44
2023/08/16 07:58:22;;;;;;;4.67;3.50;;;22.00;99.90;;;22.01;70.37;101549.16;4893810;28;97010;-46
2023/08/16 08:00:52;;;;;;;8.17;5.03;;;22.00;99.90;;;22.00;69.41;101545.59;4891586;28;97944;-45
2023/08/16 08:03:18;;;;;;;3.77;2.70;;;22.10;99.90;;;21.87;68.13;101545.59;4892963;28;97904;-44
2023/08/16 08:05:44;;;;;;;2.57;1.67;;;21.90;99.90;;;21.89;67.62;101548.16;4897318;28;97344;-44
2023/08/16 08:08:11;;;;;;;6.93;2.40;;;21.90;99.90;;;21.94;68.05;101551.38;4875279;28;97189;-43
2023/08/16 08:10:37;;;;;;;3.03;2.13;;;22.00;99.90;;;21.91;67.22;101565.03;4885663;28;101295;-43
2023/08/16 08:13:03;;;;;;;2.73;2.17;;;22.00;99.90;;;21.93;67.40;101566.63;4894268;28;98109;-44
2023/08/16 08:15:29;;;;;;;12.50;5.90;;;22.00;99.90;;;21.96;68.43;101573.63;4893509;28;101921;-44
2023/08/16 08:17:55;;;;;;;5.97;3.63;;;22.00;99.90;;;21.93;67.54;101585.44;4892059;28;97539;-49
2023/08/16 08:20:20;;;;;;;12.50;7.63;;;22.00;99.90;;;22.03;74.63;101580.31;4894019;28;110850;-45
2023/08/16 08:22:46;;;;;;;12.97;7.33;;;22.10;99.90;;;22.04;68.71;101573.97;4895416;28;114675;-44
2023/08/16 08:25:12;;;;;;;13.67;7.43;;;22.10;99.90;;;22.01;69.82;101579.56;4893138;28;98153;-44
2023/08/16 08:27:38;;;;;;;4.93;2.87;;;22.10;99.90;;;21.96;67.02;101585.22;4895191;28;97142;-44
2023/08/16 08:30:07;;;;;;;5.67;3.27;;;22.00;99.90;;;21.99;67.65;101576.13;4890657;28;116003;-46
2023/08/16 08:32:33;;;;;;;3.57;2.47;;;22.10;99.90;;;21.98;67.00;101574.38;4891032;28;97698;-46
2023/08/16 08:34:59;;;;;;;7.00;3.90;;;22.10;99.90;;;22.02;67.48;101567.84;4891906;28;97267;-46
2023/08/16 08:37:24;;;;;;;3.87;3.00;;;22.10;99.90;;;22.06;67.28;101574.75;4894749;28;97967;-45
2023/08/16 08:39:50;;;;;;;2.77;2.40;;;22.10;99.90;;;22.02;67.01;101569.66;4894093;28;110821;-46
2023/08/16 08:42:17;;;;;;;6.13;3.50;;;22.10;99.90;;;22.01;67.16;101581.38;4895995;28;98395;-44
2023/08/16 08:44:44;;;;;;;3.13;2.43;;;22.10;99.90;;;21.92;67.26;101582.88;4890934;28;100085;-45
2023/08/16 08:47:10;;;;;;;4.53;2.43;;;22.10;99.90;;;21.87;67.44;101576.97;4866682;28;97585;-44
2023/08/16 08:49:37;;;;;;;4.80;2.67;;;22.00;99.90;;;21.90;67.10;101584.81;4888305;28;98772;-48
2023/08/16 08:52:04;;;;;;;5.07;2.70;;;22.00;99.90;;;21.85;67.50;101584.25;4889285;28;101185;-43
2023/08/16 08:54:33;;;;;;;14.37;7.97;;;22.00;99.90;;;21.96;72.66;101584.38;4884920;28;97328;-49
2023/08/16 08:56:59;;;;;;;3.78;2.42;;;22.00;99.90;;;21.96;67.07;101584.38;4888369;28;102834;-46
2023/08/16 08:59:28;;;;;;;6.80;3.78;;;22.10;99.90;;;21.96;69.05;101587.06;4886543;28;118275;-49
2023/08/16 09:01:54;;;;;;;7.53;3.57;;;22.00;99.90;;;21.90;67.69;101579.44;4870464;28;97672;-45
2023/08/16 09:04:21;;;;;;;10.60;6.35;;;22.00;99.90;;;22.03;70.72;101574.94;4870615;28;97415;-45
2023/08/16 09:06:49;;;;;;;8.38;3.22;;;22.10;99.90;;;21.92;67.99;101572.13;4888948;28;98629;-54
2023/08/16 09:09:15;;;;;;;8.32;4.60;;;22.00;99.90;;;22.06;68.41;101574.75;4872445;28;102819;-45
2023/08/16 09:11:42;;;;;;;7.85;4.32;;;22.20;99.90;;;22.03;67.98;101571.38;4873104;28;97186;-44
2023/08/16 09:14:09;;;;;;;10.23;3.58;;;22.10;99.90;;;21.97;67.73;101564.59;4890063;28;97349;-44
2023/08/16 09:16:35;;;;;;;6.13;3.35;;;22.10;99.90;;;21.99;68.21;101562.69;4890234;28;98441;-43
2023/08/16 09:19:01;;;;;;;14.40;7.87;;;22.10;99.90;;;22.11;74.13;101569.91;4869075;28;98057;-46
2023/08/16 09:21:28;;;;;;;5.13;3.67;;;22.20;99.90;;;22.11;68.20;101567.22;4866830;28;98421;-43
2023/08/16 09:23:58;;;;;;;15.17;7.73;;;22.20;99.90;;;22.17;69.71;101569.50;4884708;28;97427;-44
2023/08/16 09:26:27;;;;;;;15.03;8.17;;;22.20;99.90;;;22.29;79.93;101577.66;4886424;28;97352;-43
2023/08/16 09:28:58;;;;;;;17.50;9.00;;;22.30;99.90;;;22.37;81.63;101565.38;4888664;28;98379;-44
2023/08/16 09:31:26;;;;;;;11.90;6.75;;;22.40;99.90;;;22.31;69.50;101573.03;4890313;28;97376;-47
2023/08/16 09:33:56;;;;;;;6.10;4.20;;;22.40;99.90;;;22.24;68.85;101573.44;4887571;28;101150;-45
2023/08/16 09:36:23;;;;;;;13.48;6.75;;;22.30;99.90;;;22.26;70.68;101584.94;4886968;28;97698;-45
2023/08/16 09:38:48;;;;;;;6.15;4.05;;;22.40;99.90;;;22.29;68.13;101572.28;4887270;28;118072;-47
2023/08/16 09:41:17;;;;;;;10.00;5.70;;;22.40;99.90;;;22.35;70.88;101575.41;4885753;28;97108;-44
2023/08/16 09:43:42;;;;;;;17.15;7.65;;;22.40;99.90;;;22.41;75.24;101574.09;4889131;28;96845;-44
2023/08/16 09:46:09;;;;;;;9.13;5.03;;;22.40;99.90;;;22.34;67.94;101580.88;4887960;28;97969;-45
2023/08/16 09:48:35;;;;;;;11.98;7.38;;;22.40;99.90;;;22.33;69.58;101576.47;4890357;28;98294;-44
2023/08/16 09:51:07;;;;;;;11.47;7.80;;;22.40;99.90;;;22.37;67.73;101575.28;4888385;28;104773;-44
2023/08/16 09:53:33;;;;;;;9.95;5.75;;;22.40;99.90;;;22.34;69.09;101572.81;4906373;28;96938;-43
2023/08/16 09:56:01;;;;;;;14.93;8.05;;;22.40;99.90;;;22.43;70.47;101577.56;4905677;28;97651;-46
2023/08/16 09:58:27;;;;;;;10.25;6.38;;;22.50;99.90;;;22.26;68.00;101579.56;4910411;28;97436;-44
2023/08/16 10:00:58;;;;;;;10.82;6.13;;;22.40;99.90;;;22.26;67.68;101576.88;4888689;28;108424;-43
2023/08/16 10:03:24;;;;;;;7.47;5.25;;;22.40;99.90;;;22.33;68.66;101571.09;4916402;28;97348;-44
2023/08/16 10:05:52;;;;;;;9.65;5.53;;;22.40;99.90;;;22.24;67.11;101573.44;4880674;28;97037;-46
2023/08/16 10:08:19;;;;;;;12.85;7.32;;;22.40;99.90;;;22.38;72.61;101563.56;4885977;28;97578;-47
2023/08/16 10:10:46;;;;;;;5.50;4.03;;;22.50;99.90;;;22.29;68.40;101559.72;4891875;28;109828;-44